sensor_id;sensor_type;location;lat;lon;timestamp;P1;durP1;ratioP1;P2;durP2;ratioP2
20454;SDS011;10386;54.314;10.022;2024-02-26T00:02:03;64.10;;;12.33;;
20454;SDS011;10386;54.314;10.022;2024-02-26T00:04:30;45.40;;;11.73;;
20454;SDS011;10386;54.314;10.022;2024-02-26T00:06:57;64.70;;;12.73;;
20454;SDS011;10386;54.314;10.022;2024-02-26T00:09:24;139.23;;;15.60;;
20454;SDS011;10386;54.314;10.022;2024-02-26T00:11:51;152.40;;;17.20;;
20454;SDS011;10386;54.314;10.022;2024-02-26T00:14:18;29.67;;;11.20;;
20454;SDS011;10386;54.314;10.022;2024-02-26T00:16:45;60.13;;;12.50;;
20454;SDS011;10386;54.314;10.022;2024-02-26T00:19:12;44.77;;;10.83;;
20454;SDS011;10386;54.314;10.022;2024-02-26T00:21:42;51.53;;;12.17;;
20454;SDS011;10386;54.314;10.022;2024-02-26T00:24:09;88.00;;;12.13;;
20454;SDS011;10386;54.314;10.022;2024-02-26T00:26:35;40.97;;;11.40;;
20454;SDS011;10386;54.314;10.022;2024-02-26T00:29:02;55.53;;;12.00;;
20454;SDS011;10386;54.314;10.022;2024-02-26T00:31:29;46.27;;;10.70;;
20454;SDS011;10386;54.314;10.022;2024-02-26T00:33:56;77.67;;;11.90;;
20454;SDS011;10386;54.314;10.022;2024-02-26T00:36:23;33.67;;;10.07;;
20454;SDS011;10386;54.314;10.022;2024-02-26T00:38:50;57.13;;;9.93;;
20454;SDS011;10386;54.314;10.022;2024-02-26T00:41:17;33.23;;;9.37;;
20454;SDS011;10386;54.314;10.022;2024-02-26T00:43:45;26.57;;;10.00;;
20454;SDS011;10386;54.314;10.022;2024-02-26T00:52:02;32.30;;;9.93;;
20454;SDS011;10386;54.314;10.022;2024-02-26T00:54:29;14.63;;;9.03;;
20454;SDS011;10386;54.314;10.022;2024-02-26T00:56:56;61.40;;;10.90;;
20454;SDS011;10386;54.314;10.022;2024-02-26T00:59:22;46.03;;;10.53;;
20454;SDS011;10386;54.314;10.022;2024-02-26T01:01:49;56.87;;;10.97;;
20454;SDS011;10386;54.314;10.022;2024-02-26T01:04:16;28.63;;;9.93;;
20454;SDS011;10386;54.314;10.022;2024-02-26T01:06:43;79.40;;;13.13;;
20454;SDS011;10386;54.314;10.022;2024-02-26T01:09:10;59.47;;;11.70;;
20454;SDS011;10386;54.314;10.022;2024-02-26T01:11:37;34.13;;;10.60;;
20454;SDS011;10386;54.314;10.022;2024-02-26T01:14:03;26.07;;;10.87;;
20454;SDS011;10386;54.314;10.022;2024-02-26T01:16:30;60.40;;;10.93;;
20454;SDS011;10386;54.314;10.022;2024-02-26T01:18:58;149.23;;;13.73;;
20454;SDS011;10386;54.314;10.022;2024-02-26T01:21:25;129.43;;;13.77;;
20454;SDS011;10386;54.314;10.022;2024-02-26T01:23:55;24.10;;;10.07;;
20454;SDS011;10386;54.314;10.022;2024-02-26T01:26:22;25.60;;;9.63;;
20454;SDS011;10386;54.314;10.022;2024-02-26T01:28:49;36.10;;;8.97;;
20454;SDS011;10386;54.314;10.022;2024-02-26T01:31:16;71.80;;;11.03;;
20454;SDS011;10386;54.314;10.022;2024-02-26T01:33:43;14.80;;;8.63;;
20454;SDS011;10386;54.314;10.022;2024-02-26T01:36:10;23.43;;;9.10;;
20454;SDS011;10386;54.314;10.022;2024-02-26T01:38:38;17.47;;;9.20;;
20454;SDS011;10386;54.314;10.022;2024-02-26T01:41:05;40.43;;;9.90;;
20454;SDS011;10386;54.314;10.022;2024-02-26T01:43:32;35.87;;;10.17;;
20454;SDS011;10386;54.314;10.022;2024-02-26T01:45:59;20.20;;;9.50;;
20454;SDS011;10386;54.314;10.022;2024-02-26T01:48:27;73.20;;;10.27;;
20454;SDS011;10386;54.314;10.022;2024-02-26T01:50:54;14.90;;;8.33;;
20454;SDS011;10386;54.314;10.022;2024-02-26T01:53:21;16.13;;;8.63;;
20454;SDS011;10386;54.314;10.022;2024-02-26T01:55:48;21.10;;;8.80;;
20454;SDS011;10386;54.314;10.022;2024-02-26T01:58:15;24.07;;;9.20;;
20454;SDS011;10386;54.314;10.022;2024-02-26T02:00:42;35.03;;;9.70;;
20454;SDS011;10386;54.314;10.022;2024-02-26T02:03:10;68.50;;;10.80;;
20454;SDS011;10386;54.314;10.022;2024-02-26T02:05:36;19.63;;;8.53;;
20454;SDS011;10386;54.314;10.022;2024-02-26T02:08:09;20.73;;;8.83;;
20454;SDS011;10386;54.314;10.022;2024-02-26T02:10:38;47.07;;;9.20;;
20454;SDS011;10386;54.314;10.022;2024-02-26T02:13:05;16.57;;;7.60;;
20454;SDS011;10386;54.314;10.022;2024-02-26T02:15:33;16.47;;;8.50;;
20454;SDS011;10386;54.314;10.022;2024-02-26T02:18:00;88.03;;;10.40;;
20454;SDS011;10386;54.314;10.022;2024-02-26T02:20:33;18.87;;;8.63;;
20454;SDS011;10386;54.314;10.022;2024-02-26T02:23:01;49.20;;;9.13;;
20454;SDS011;10386;54.314;10.022;2024-02-26T02:25:28;23.67;;;7.97;;
20454;SDS011;10386;54.314;10.022;2024-02-26T02:27:55;28.43;;;8.33;;
20454;SDS011;10386;54.314;10.022;2024-02-26T02:30:24;39.10;;;10.10;;
20454;SDS011;10386;54.314;10.022;2024-02-26T02:32:54;27.37;;;9.43;;
20454;SDS011;10386;54.314;10.022;2024-02-26T02:35:23;29.63;;;8.83;;
20454;SDS011;10386;54.314;10.022;2024-02-26T02:37:54;72.80;;;10.10;;
20454;SDS011;10386;54.314;10.022;2024-02-26T02:40:25;39.33;;;9.50;;
20454;SDS011;10386;54.314;10.022;2024-02-26T02:42:52;26.80;;;8.27;;
20454;SDS011;10386;54.314;10.022;2024-02-26T02:45:18;22.27;;;10.93;;
20454;SDS011;10386;54.314;10.022;2024-02-26T02:47:45;20.73;;;8.87;;
20454;SDS011;10386;54.314;10.022;2024-02-26T02:50:12;16.03;;;8.73;;
20454;SDS011;10386;54.314;10.022;2024-02-26T02:52:39;15.07;;;8.50;;
20454;SDS011;10386;54.314;10.022;2024-02-26T02:55:06;40.90;;;9.30;;
20454;SDS011;10386;54.314;10.022;2024-02-26T02:57:33;22.23;;;9.17;;
20454;SDS011;10386;54.314;10.022;2024-02-26T03:00:00;22.43;;;8.97;;
20454;SDS011;10386;54.314;10.022;2024-02-26T03:02:27;20.77;;;9.03;;
20454;SDS011;10386;54.314;10.022;2024-02-26T03:04:54;17.87;;;8.47;;
20454;SDS011;10386;54.314;10.022;2024-02-26T03:07:20;18.73;;;8.40;;
20454;SDS011;10386;54.314;10.022;2024-02-26T03:09:47;45.57;;;9.43;;
20454;SDS011;10386;54.314;10.022;2024-02-26T03:12:14;20.73;;;8.07;;
20454;SDS011;10386;54.314;10.022;2024-02-26T03:14:41;35.13;;;9.10;;
20454;SDS011;10386;54.314;10.022;2024-02-26T03:17:08;40.50;;;9.63;;
20454;SDS011;10386;54.314;10.022;2024-02-26T03:19:35;23.87;;;8.67;;
20454;SDS011;10386;54.314;10.022;2024-02-26T03:22:02;28.80;;;8.50;;
20454;SDS011;10386;54.314;10.022;2024-02-26T03:24:29;20.00;;;7.80;;
20454;SDS011;10386;54.314;10.022;2024-02-26T03:26:55;17.23;;;7.73;;
20454;SDS011;10386;54.314;10.022;2024-02-26T03:29:23;34.33;;;8.40;;
20454;SDS011;10386;54.314;10.022;2024-02-26T03:31:49;46.90;;;8.67;;
20454;SDS011;10386;54.314;10.022;2024-02-26T03:34:16;37.00;;;8.50;;
20454;SDS011;10386;54.314;10.022;2024-02-26T03:36:45;57.47;;;9.27;;
20454;SDS011;10386;54.314;10.022;2024-02-26T03:39:12;38.30;;;8.53;;
20454;SDS011;10386;54.314;10.022;2024-02-26T03:41:39;30.23;;;8.47;;
20454;SDS011;10386;54.314;10.022;2024-02-26T03:44:05;24.90;;;7.90;;
20454;SDS011;10386;54.314;10.022;2024-02-26T03:46:32;35.03;;;9.00;;
20454;SDS011;10386;54.314;10.022;2024-02-26T03:48:59;32.67;;;8.27;;
20454;SDS011;10386;54.314;10.022;2024-02-26T03:51:26;26.37;;;8.07;;
20454;SDS011;10386;54.314;10.022;2024-02-26T03:53:57;39.03;;;8.20;;
20454;SDS011;10386;54.314;10.022;2024-02-26T03:56:25;30.93;;;8.13;;
20454;SDS011;10386;54.314;10.022;2024-02-26T03:58:53;50.90;;;8.10;;
20454;SDS011;10386;54.314;10.022;2024-02-26T04:01:20;16.47;;;8.03;;
20454;SDS011;10386;54.314;10.022;2024-02-26T04:03:47;23.63;;;7.77;;
20454;SDS011;10386;54.314;10.022;2024-02-26T04:06:14;30.83;;;7.77;;
20454;SDS011;10386;54.314;10.022;2024-02-26T04:08:41;41.93;;;9.63;;
20454;SDS011;10386;54.314;10.022;2024-02-26T04:11:08;30.27;;;8.10;;
20454;SDS011;10386;54.314;10.022;2024-02-26T04:13:35;18.87;;;7.40;;
20454;SDS011;10386;54.314;10.022;2024-02-26T04:16:05;14.03;;;6.27;;
20454;SDS011;10386;54.314;10.022;2024-02-26T04:18:32;16.40;;;7.60;;
20454;SDS011;10386;54.314;10.022;2024-02-26T04:21:00;13.20;;;6.63;;
20454;SDS011;10386;54.314;10.022;2024-02-26T04:23:27;20.70;;;8.03;;
20454;SDS011;10386;54.314;10.022;2024-02-26T04:25:54;19.50;;;8.07;;
20454;SDS011;10386;54.314;10.022;2024-02-26T04:28:20;20.37;;;7.67;;
20454;SDS011;10386;54.314;10.022;2024-02-26T04:30:47;17.63;;;6.70;;
20454;SDS011;10386;54.314;10.022;2024-02-26T04:33:14;11.93;;;6.90;;
20454;SDS011;10386;54.314;10.022;2024-02-26T04:35:41;23.70;;;7.73;;
20454;SDS011;10386;54.314;10.022;2024-02-26T04:38:08;14.13;;;7.57;;
20454;SDS011;10386;54.314;10.022;2024-02-26T04:40:35;14.70;;;6.60;;
20454;SDS011;10386;54.314;10.022;2024-02-26T04:43:02;18.87;;;6.87;;
20454;SDS011;10386;54.314;10.022;2024-02-26T04:45:29;14.57;;;6.87;;
20454;SDS011;10386;54.314;10.022;2024-02-26T04:47:56;17.10;;;7.83;;
20454;SDS011;10386;54.314;10.022;2024-02-26T04:50:23;18.83;;;7.40;;
20454;SDS011;10386;54.314;10.022;2024-02-26T04:52:50;17.20;;;7.20;;
20454;SDS011;10386;54.314;10.022;2024-02-26T04:55:16;20.87;;;7.70;;
20454;SDS011;10386;54.314;10.022;2024-02-26T04:57:43;23.23;;;7.93;;
20454;SDS011;10386;54.314;10.022;2024-02-26T05:00:10;13.50;;;6.83;;
20454;SDS011;10386;54.314;10.022;2024-02-26T05:02:38;11.17;;;6.43;;
20454;SDS011;10386;54.314;10.022;2024-02-26T05:05:05;12.33;;;6.53;;
20454;SDS011;10386;54.314;10.022;2024-02-26T05:07:32;21.37;;;6.63;;
20454;SDS011;10386;54.314;10.022;2024-02-26T05:09:59;10.90;;;5.90;;
20454;SDS011;10386;54.314;10.022;2024-02-26T05:12:26;10.03;;;6.23;;
20454;SDS011;10386;54.314;10.022;2024-02-26T05:14:53;11.33;;;6.33;;
20454;SDS011;10386;54.314;10.022;2024-02-26T05:17:20;12.27;;;6.83;;
20454;SDS011;10386;54.314;10.022;2024-02-26T05:19:50;12.37;;;6.33;;
20454;SDS011;10386;54.314;10.022;2024-02-26T05:22:17;10.27;;;5.93;;
20454;SDS011;10386;54.314;10.022;2024-02-26T05:24:44;13.77;;;7.27;;
20454;SDS011;10386;54.314;10.022;2024-02-26T05:27:11;12.23;;;6.30;;
20454;SDS011;10386;54.314;10.022;2024-02-26T05:29:38;12.27;;;6.13;;
20454;SDS011;10386;54.314;10.022;2024-02-26T05:32:05;9.40;;;5.80;;
20454;SDS011;10386;54.314;10.022;2024-02-26T05:34:32;10.73;;;6.60;;
20454;SDS011;10386;54.314;10.022;2024-02-26T05:37:00;8.93;;;6.07;;
20454;SDS011;10386;54.314;10.022;2024-02-26T05:39:27;11.80;;;6.40;;
20454;SDS011;10386;54.314;10.022;2024-02-26T05:41:53;12.93;;;6.60;;
20454;SDS011;10386;54.314;10.022;2024-02-26T05:44:22;14.97;;;7.07;;
20454;SDS011;10386;54.314;10.022;2024-02-26T05:46:49;12.50;;;6.30;;
20454;SDS011;10386;54.314;10.022;2024-02-26T05:49:16;11.43;;;6.20;;
20454;SDS011;10386;54.314;10.022;2024-02-26T05:51:45;13.10;;;6.37;;
20454;SDS011;10386;54.314;10.022;2024-02-26T05:54:12;12.37;;;6.17;;
20454;SDS011;10386;54.314;10.022;2024-02-26T05:56:39;10.23;;;5.97;;
20454;SDS011;10386;54.314;10.022;2024-02-26T05:59:06;10.87;;;5.73;;
20454;SDS011;10386;54.314;10.022;2024-02-26T06:01:33;12.50;;;6.30;;
20454;SDS011;10386;54.314;10.022;2024-02-26T06:04:00;11.63;;;6.40;;
20454;SDS011;10386;54.314;10.022;2024-02-26T06:06:27;11.67;;;6.80;;
20454;SDS011;10386;54.314;10.022;2024-02-26T06:08:54;15.07;;;7.40;;
20454;SDS011;10386;54.314;10.022;2024-02-26T06:11:21;10.77;;;6.37;;
20454;SDS011;10386;54.314;10.022;2024-02-26T06:13:49;12.87;;;7.07;;
20454;SDS011;10386;54.314;10.022;2024-02-26T06:16:16;14.53;;;7.90;;
20454;SDS011;10386;54.314;10.022;2024-02-26T06:18:43;10.23;;;6.23;;
20454;SDS011;10386;54.314;10.022;2024-02-26T06:21:10;11.60;;;6.40;;
20454;SDS011;10386;54.314;10.022;2024-02-26T06:23:38;12.60;;;7.00;;
20454;SDS011;10386;54.314;10.022;2024-02-26T06:26:06;12.73;;;7.07;;
20454;SDS011;10386;54.314;10.022;2024-02-26T06:28:33;12.07;;;6.73;;
20454;SDS011;10386;54.314;10.022;2024-02-26T06:31:02;10.47;;;6.37;;
20454;SDS011;10386;54.314;10.022;2024-02-26T06:33:29;10.17;;;6.17;;
20454;SDS011;10386;54.314;10.022;2024-02-26T06:35:56;10.47;;;6.77;;
20454;SDS011;10386;54.314;10.022;2024-02-26T06:38:23;13.13;;;7.77;;
20454;SDS011;10386;54.314;10.022;2024-02-26T06:40:50;12.27;;;6.17;;
20454;SDS011;10386;54.314;10.022;2024-02-26T06:43:17;17.63;;;7.70;;
20454;SDS011;10386;54.314;10.022;2024-02-26T06:45:44;15.67;;;7.27;;
20454;SDS011;10386;54.314;10.022;2024-02-26T06:48:11;21.70;;;8.87;;
20454;SDS011;10386;54.314;10.022;2024-02-26T06:50:38;32.93;;;9.43;;
20454;SDS011;10386;54.314;10.022;2024-02-26T06:53:05;58.20;;;9.67;;
20454;SDS011;10386;54.314;10.022;2024-02-26T06:55:33;74.67;;;11.33;;
20454;SDS011;10386;54.314;10.022;2024-02-26T06:58:00;38.13;;;11.50;;
20454;SDS011;10386;54.314;10.022;2024-02-26T07:00:27;31.67;;;10.97;;
20454;SDS011;10386;54.314;10.022;2024-02-26T07:02:54;36.73;;;11.00;;
20454;SDS011;10386;54.314;10.022;2024-02-26T07:05:21;72.30;;;12.40;;
20454;SDS011;10386;54.314;10.022;2024-02-26T07:07:47;79.70;;;13.00;;
20454;SDS011;10386;54.314;10.022;2024-02-26T07:10:14;32.00;;;10.50;;
20454;SDS011;10386;54.314;10.022;2024-02-26T07:12:41;41.90;;;11.70;;
20454;SDS011;10386;54.314;10.022;2024-02-26T07:15:08;57.58;;;12.65;;
20454;SDS011;10386;54.314;10.022;2024-02-26T07:17:36;50.33;;;11.03;;
20454;SDS011;10386;54.314;10.022;2024-02-26T07:20:03;38.83;;;11.80;;
20454;SDS011;10386;54.314;10.022;2024-02-26T07:22:36;96.87;;;11.60;;
20454;SDS011;10386;54.314;10.022;2024-02-26T07:25:02;51.43;;;10.10;;
20454;SDS011;10386;54.314;10.022;2024-02-26T07:27:30;23.63;;;9.50;;
20454;SDS011;10386;54.314;10.022;2024-02-26T07:29:57;31.97;;;9.20;;
20454;SDS011;10386;54.314;10.022;2024-02-26T07:32:23;33.43;;;10.20;;
20454;SDS011;10386;54.314;10.022;2024-02-26T07:34:50;53.60;;;10.37;;
20454;SDS011;10386;54.314;10.022;2024-02-26T07:37:17;18.97;;;9.83;;
20454;SDS011;10386;54.314;10.022;2024-02-26T07:39:44;75.13;;;11.60;;
20454;SDS011;10386;54.314;10.022;2024-02-26T07:42:11;24.93;;;8.50;;
20454;SDS011;10386;54.314;10.022;2024-02-26T07:44:38;52.80;;;9.77;;
20454;SDS011;10386;54.314;10.022;2024-02-26T07:47:07;32.23;;;9.10;;
20454;SDS011;10386;54.314;10.022;2024-02-26T07:49:33;51.30;;;9.43;;
20454;SDS011;10386;54.314;10.022;2024-02-26T07:52:04;33.13;;;10.00;;
20454;SDS011;10386;54.314;10.022;2024-02-26T07:54:31;35.37;;;11.30;;
20454;SDS011;10386;54.314;10.022;2024-02-26T07:56:58;60.67;;;11.40;;
20454;SDS011;10386;54.314;10.022;2024-02-26T07:59:25;37.63;;;9.70;;
20454;SDS011;10386;54.314;10.022;2024-02-26T08:01:51;37.70;;;8.07;;
20454;SDS011;10386;54.314;10.022;2024-02-26T08:04:24;37.30;;;8.70;;
20454;SDS011;10386;54.314;10.022;2024-02-26T08:06:52;48.57;;;9.30;;
20454;SDS011;10386;54.314;10.022;2024-02-26T08:09:19;27.23;;;8.87;;
20454;SDS011;10386;54.314;10.022;2024-02-26T08:11:46;20.50;;;8.03;;
20454;SDS011;10386;54.314;10.022;2024-02-26T08:14:13;59.17;;;10.10;;
20454;SDS011;10386;54.314;10.022;2024-02-26T08:16:40;57.30;;;10.00;;
20454;SDS011;10386;54.314;10.022;2024-02-26T08:19:07;27.40;;;8.60;;
20454;SDS011;10386;54.314;10.022;2024-02-26T08:21:34;30.40;;;7.83;;
20454;SDS011;10386;54.314;10.022;2024-02-26T08:24:01;16.93;;;7.13;;
20454;SDS011;10386;54.314;10.022;2024-02-26T08:26:32;19.37;;;7.70;;
20454;SDS011;10386;54.314;10.022;2024-02-26T08:28:58;47.47;;;8.80;;
20454;SDS011;10386;54.314;10.022;2024-02-26T08:31:25;26.30;;;7.40;;
20454;SDS011;10386;54.314;10.022;2024-02-26T08:33:53;26.47;;;7.73;;
20454;SDS011;10386;54.314;10.022;2024-02-26T08:36:20;15.53;;;7.07;;
20454;SDS011;10386;54.314;10.022;2024-02-26T08:38:47;40.00;;;8.20;;
20454;SDS011;10386;54.314;10.022;2024-02-26T08:41:14;17.90;;;6.80;;
20454;SDS011;10386;54.314;10.022;2024-02-26T08:43:41;23.07;;;6.13;;
20454;SDS011;10386;54.314;10.022;2024-02-26T08:46:09;27.10;;;6.90;;
20454;SDS011;10386;54.314;10.022;2024-02-26T08:48:36;36.13;;;6.97;;
20454;SDS011;10386;54.314;10.022;2024-02-26T08:51:06;48.67;;;6.80;;
20454;SDS011;10386;54.314;10.022;2024-02-26T08:53:33;22.30;;;5.73;;
20454;SDS011;10386;54.314;10.022;2024-02-26T08:56:08;45.70;;;6.20;;
20454;SDS011;10386;54.314;10.022;2024-02-26T08:58:35;47.10;;;7.10;;
20454;SDS011;10386;54.314;10.022;2024-02-26T09:01:02;37.00;;;5.50;;
20454;SDS011;10386;54.314;10.022;2024-02-26T09:03:29;46.90;;;7.80;;
20454;SDS011;10386;54.314;10.022;2024-02-26T09:05:57;50.63;;;7.03;;
20454;SDS011;10386;54.314;10.022;2024-02-26T09:08:24;38.10;;;7.30;;
20454;SDS011;10386;54.314;10.022;2024-02-26T09:10:51;35.37;;;7.60;;
20454;SDS011;10386;54.314;10.022;2024-02-26T09:13:18;48.40;;;8.77;;
20454;SDS011;10386;54.314;10.022;2024-02-26T09:15:45;66.23;;;9.70;;
20454;SDS011;10386;54.314;10.022;2024-02-26T09:18:12;41.50;;;9.17;;
20454;SDS011;10386;54.314;10.022;2024-02-26T09:20:40;48.60;;;9.50;;
20454;SDS011;10386;54.314;10.022;2024-02-26T09:23:07;46.00;;;9.77;;
20454;SDS011;10386;54.314;10.022;2024-02-26T09:25:34;48.90;;;8.37;;
20454;SDS011;10386;54.314;10.022;2024-02-26T09:28:01;59.47;;;12.33;;
20454;SDS011;10386;54.314;10.022;2024-02-26T09:30:28;24.57;;;8.33;;
20454;SDS011;10386;54.314;10.022;2024-02-26T09:32:54;44.60;;;9.50;;
20454;SDS011;10386;54.314;10.022;2024-02-26T09:35:21;39.57;;;8.43;;
20454;SDS011;10386;54.314;10.022;2024-02-26T09:37:49;51.07;;;8.90;;
20454;SDS011;10386;54.314;10.022;2024-02-26T09:40:16;21.70;;;8.97;;
20454;SDS011;10386;54.314;10.022;2024-02-26T09:42:46;47.07;;;10.23;;
20454;SDS011;10386;54.314;10.022;2024-02-26T09:45:17;32.10;;;9.80;;
20454;SDS011;10386;54.314;10.022;2024-02-26T09:47:45;31.00;;;9.70;;
20454;SDS011;10386;54.314;10.022;2024-02-26T09:50:16;18.90;;;9.30;;
20454;SDS011;10386;54.314;10.022;2024-02-26T09:52:44;28.40;;;9.80;;
20454;SDS011;10386;54.314;10.022;2024-02-26T09:55:11;20.70;;;9.90;;
20454;SDS011;10386;54.314;10.022;2024-02-26T09:57:38;22.03;;;10.20;;
20454;SDS011;10386;54.314;10.022;2024-02-26T10:00:18;18.60;;;9.13;;
20454;SDS011;10386;54.314;10.022;2024-02-26T10:02:47;19.07;;;9.47;;
20454;SDS011;10386;54.314;10.022;2024-02-26T10:05:16;23.83;;;9.80;;
20454;SDS011;10386;54.314;10.022;2024-02-26T10:07:46;20.17;;;9.30;;
20454;SDS011;10386;54.314;10.022;2024-02-26T10:10:14;21.40;;;9.40;;
20454;SDS011;10386;54.314;10.022;2024-02-26T10:12:41;21.03;;;9.50;;
20454;SDS011;10386;54.314;10.022;2024-02-26T10:15:08;22.70;;;10.53;;
20454;SDS011;10386;54.314;10.022;2024-02-26T10:17:35;19.37;;;9.43;;
20454;SDS011;10386;54.314;10.022;2024-02-26T10:20:17;19.53;;;9.50;;
20454;SDS011;10386;54.314;10.022;2024-02-26T10:22:45;17.50;;;8.80;;
20454;SDS011;10386;54.314;10.022;2024-02-26T10:25:12;16.00;;;8.00;;
20454;SDS011;10386;54.314;10.022;2024-02-26T10:27:41;17.57;;;8.60;;
20454;SDS011;10386;54.314;10.022;2024-02-26T10:32:45;15.90;;;8.20;;
20454;SDS011;10386;54.314;10.022;2024-02-26T10:35:14;14.80;;;8.17;;
20454;SDS011;10386;54.314;10.022;2024-02-26T10:37:41;16.37;;;8.50;;
20454;SDS011;10386;54.314;10.022;2024-02-26T10:40:12;18.70;;;8.60;;
20454;SDS011;10386;54.314;10.022;2024-02-26T10:42:40;15.30;;;7.87;;
20454;SDS011;10386;54.314;10.022;2024-02-26T10:45:08;16.50;;;8.43;;
20454;SDS011;10386;54.314;10.022;2024-02-26T10:47:36;16.10;;;8.67;;
20454;SDS011;10386;54.314;10.022;2024-02-26T10:50:04;16.77;;;9.27;;
20454;SDS011;10386;54.314;10.022;2024-02-26T10:52:33;17.37;;;9.13;;
20454;SDS011;10386;54.314;10.022;2024-02-26T10:55:01;18.07;;;9.10;;
20454;SDS011;10386;54.314;10.022;2024-02-26T10:57:48;18.47;;;9.60;;
20454;SDS011;10386;54.314;10.022;2024-02-26T11:00:18;22.43;;;9.90;;
20454;SDS011;10386;54.314;10.022;2024-02-26T11:02:45;17.83;;;9.43;;
20454;SDS011;10386;54.314;10.022;2024-02-26T11:05:14;20.10;;;10.57;;
20454;SDS011;10386;54.314;10.022;2024-02-26T11:07:41;22.17;;;10.43;;
20454;SDS011;10386;54.314;10.022;2024-02-26T11:10:08;22.60;;;10.53;;
20454;SDS011;10386;54.314;10.022;2024-02-26T11:12:37;23.37;;;11.17;;
20454;SDS011;10386;54.314;10.022;2024-02-26T11:15:06;21.77;;;10.80;;
20454;SDS011;10386;54.314;10.022;2024-02-26T11:17:34;27.57;;;11.93;;
20454;SDS011;10386;54.314;10.022;2024-02-26T11:20:03;21.60;;;9.83;;
20454;SDS011;10386;54.314;10.022;2024-02-26T11:22:32;23.87;;;10.80;;
20454;SDS011;10386;54.314;10.022;2024-02-26T11:25:00;23.80;;;10.40;;
20454;SDS011;10386;54.314;10.022;2024-02-26T11:27:39;22.30;;;9.93;;
20454;SDS011;10386;54.314;10.022;2024-02-26T11:30:10;21.53;;;10.57;;
20454;SDS011;10386;54.314;10.022;2024-02-26T11:32:40;23.33;;;10.27;;
20454;SDS011;10386;54.314;10.022;2024-02-26T11:35:07;22.50;;;10.57;;
20454;SDS011;10386;54.314;10.022;2024-02-26T11:37:36;24.27;;;10.80;;
20454;SDS011;10386;54.314;10.022;2024-02-26T11:40:11;22.17;;;10.80;;
20454;SDS011;10386;54.314;10.022;2024-02-26T11:42:44;19.57;;;9.97;;
20454;SDS011;10386;54.314;10.022;2024-02-26T11:48:13;20.33;;;9.70;;
20454;SDS011;10386;54.314;10.022;2024-02-26T11:50:48;18.70;;;9.67;;
20454;SDS011;10386;54.314;10.022;2024-02-26T11:53:24;20.07;;;10.03;;
20454;SDS011;10386;54.314;10.022;2024-02-26T11:58:46;20.50;;;9.70;;
20454;SDS011;10386;54.314;10.022;2024-02-26T12:04:02;19.87;;;9.23;;
20454;SDS011;10386;54.314;10.022;2024-02-26T12:06:31;18.60;;;9.73;;
20454;SDS011;10386;54.314;10.022;2024-02-26T12:09:07;16.87;;;9.67;;
20454;SDS011;10386;54.314;10.022;2024-02-26T12:11:38;18.87;;;9.40;;
20454;SDS011;10386;54.314;10.022;2024-02-26T12:14:07;16.93;;;9.63;;
20454;SDS011;10386;54.314;10.022;2024-02-26T12:16:38;17.67;;;8.37;;
20454;SDS011;10386;54.314;10.022;2024-02-26T12:19:07;14.37;;;8.13;;
20454;SDS011;10386;54.314;10.022;2024-02-26T12:21:36;15.07;;;8.50;;
20454;SDS011;10386;54.314;10.022;2024-02-26T12:24:13;17.43;;;8.77;;
20454;SDS011;10386;54.314;10.022;2024-02-26T12:26:42;16.63;;;8.60;;
20454;SDS011;10386;54.314;10.022;2024-02-26T12:29:08;13.87;;;7.87;;
20454;SDS011;10386;54.314;10.022;2024-02-26T12:31:36;12.60;;;7.20;;
20454;SDS011;10386;54.314;10.022;2024-02-26T12:34:04;14.37;;;7.27;;
20454;SDS011;10386;54.314;10.022;2024-02-26T12:36:33;11.87;;;6.80;;
20454;SDS011;10386;54.314;10.022;2024-02-26T12:39:02;11.20;;;6.50;;
20454;SDS011;10386;54.314;10.022;2024-02-26T12:41:29;10.80;;;6.27;;
20454;SDS011;10386;54.314;10.022;2024-02-26T12:43:57;9.83;;;6.20;;
20454;SDS011;10386;54.314;10.022;2024-02-26T12:46:24;9.53;;;5.63;;
20454;SDS011;10386;54.314;10.022;2024-02-26T12:48:51;11.23;;;6.50;;
20454;SDS011;10386;54.314;10.022;2024-02-26T12:51:20;11.87;;;6.50;;
20454;SDS011;10386;54.314;10.022;2024-02-26T12:53:48;10.67;;;6.70;;
20454;SDS011;10386;54.314;10.022;2024-02-26T12:56:16;10.87;;;6.57;;
20454;SDS011;10386;54.314;10.022;2024-02-26T12:58:44;11.83;;;6.77;;
20454;SDS011;10386;54.314;10.022;2024-02-26T13:01:16;12.10;;;6.80;;
20454;SDS011;10386;54.314;10.022;2024-02-26T13:03:45;10.87;;;7.00;;
20454;SDS011;10386;54.314;10.022;2024-02-26T13:06:12;10.37;;;6.17;;
20454;SDS011;10386;54.314;10.022;2024-02-26T13:08:39;10.67;;;6.73;;
20454;SDS011;10386;54.314;10.022;2024-02-26T13:11:07;10.87;;;7.07;;
20454;SDS011;10386;54.314;10.022;2024-02-26T13:13:34;11.77;;;7.00;;
20454;SDS011;10386;54.314;10.022;2024-02-26T13:16:05;12.93;;;7.43;;
20454;SDS011;10386;54.314;10.022;2024-02-26T13:18:34;12.60;;;7.43;;
20454;SDS011;10386;54.314;10.022;2024-02-26T13:21:13;14.43;;;8.07;;
20454;SDS011;10386;54.314;10.022;2024-02-26T13:23:42;12.93;;;8.07;;
20454;SDS011;10386;54.314;10.022;2024-02-26T13:26:11;12.60;;;6.97;;
20454;SDS011;10386;54.314;10.022;2024-02-26T13:28:40;13.93;;;7.87;;
20454;SDS011;10386;54.314;10.022;2024-02-26T13:31:07;11.60;;;7.27;;
20454;SDS011;10386;54.314;10.022;2024-02-26T13:33:35;14.37;;;7.97;;
20454;SDS011;10386;54.314;10.022;2024-02-26T13:36:02;13.87;;;8.13;;
20454;SDS011;10386;54.314;10.022;2024-02-26T13:38:30;17.23;;;8.53;;
20454;SDS011;10386;54.314;10.022;2024-02-26T13:40:57;13.80;;;8.00;;
20454;SDS011;10386;54.314;10.022;2024-02-26T13:43:27;15.57;;;8.57;;
20454;SDS011;10386;54.314;10.022;2024-02-26T13:45:54;13.83;;;7.53;;
20454;SDS011;10386;54.314;10.022;2024-02-26T13:48:21;13.83;;;8.10;;
20454;SDS011;10386;54.314;10.022;2024-02-26T13:50:49;14.23;;;7.63;;
20454;SDS011;10386;54.314;10.022;2024-02-26T13:53:16;15.60;;;8.57;;
20454;SDS011;10386;54.314;10.022;2024-02-26T13:55:43;14.70;;;8.27;;
20454;SDS011;10386;54.314;10.022;2024-02-26T13:58:13;15.70;;;8.23;;
20454;SDS011;10386;54.314;10.022;2024-02-26T14:00:41;14.97;;;8.80;;
20454;SDS011;10386;54.314;10.022;2024-02-26T14:03:09;15.03;;;8.13;;
20454;SDS011;10386;54.314;10.022;2024-02-26T14:05:36;16.70;;;9.00;;
20454;SDS011;10386;54.314;10.022;2024-02-26T14:08:03;15.03;;;8.80;;
20454;SDS011;10386;54.314;10.022;2024-02-26T14:10:31;14.13;;;8.43;;
20454;SDS011;10386;54.314;10.022;2024-02-26T14:12:58;12.37;;;7.67;;
20454;SDS011;10386;54.314;10.022;2024-02-26T14:15:25;15.60;;;8.80;;
20454;SDS011;10386;54.314;10.022;2024-02-26T14:17:52;15.27;;;9.23;;
20454;SDS011;10386;54.314;10.022;2024-02-26T14:20:23;15.50;;;8.20;;
20454;SDS011;10386;54.314;10.022;2024-02-26T14:22:51;15.03;;;8.30;;
20454;SDS011;10386;54.314;10.022;2024-02-26T14:25:21;15.20;;;8.00;;
20454;SDS011;10386;54.314;10.022;2024-02-26T14:27:48;13.57;;;7.67;;
20454;SDS011;10386;54.314;10.022;2024-02-26T14:30:15;13.67;;;8.13;;
20454;SDS011;10386;54.314;10.022;2024-02-26T14:32:42;15.43;;;8.10;;
20454;SDS011;10386;54.314;10.022;2024-02-26T14:35:10;13.80;;;8.20;;
20454;SDS011;10386;54.314;10.022;2024-02-26T14:37:43;15.67;;;8.23;;
20454;SDS011;10386;54.314;10.022;2024-02-26T14:40:14;13.10;;;7.97;;